Time;durP1;ratioP1;P1;durP2;ratioP2;P2;SDS_P1;SDS_P2;PMS_P1;PMS_P2;Temp;Humidity;BMP_temperature;BMP_pressure;BME280_temperature;BME280_humidity;BME280_pressure;Samples;Min_cycle;Max_cycle;Signal;HPM_P1;HPM_P2
2022/10/17 00:00:28;;;;;;;781.80;81.60;;;13.60;99.90;;;;;;5094031;28;20016;-52
2022/10/17 00:02:55;;;;;;;233.05;64.43;;;13.60;99.90;;;;;;5092744;28;20032;-51
2022/10/17 00:05:21;;;;;;;727.10;87.82;;;13.50;99.90;;;;;;5093855;28;20020;-51
2022/10/17 00:07:46;;;;;;;708.83;88.38;;;13.60;99.90;;;;;;5093730;28;20032;-51
2022/10/17 00:10:12;;;;;;;572.10;82.28;;;13.50;99.90;;;;;;5092420;28;20032;-50
2022/10/17 00:12:38;;;;;;;1063.50;108.43;;;13.60;99.90;;;;;;5093714;28;20024;-52
2022/10/17 00:15:05;;;;;;;818.67;95.20;;;13.60;99.90;;;;;;5093862;28;20485;-51
2022/10/17 00:17:31;;;;;;;321.85;75.13;;;13.50;99.90;;;;;;5093678;28;20111;-52
2022/10/17 00:20:00;;;;;;;584.00;80.53;;;13.60;99.90;;;;;;5093824;28;20032;-51
2022/10/17 00:22:26;;;;;;;540.92;77.45;;;13.60;99.90;;;;;;5093472;28;20067;-51
2022/10/17 00:24:52;;;;;;;201.07;61.65;;;13.60;99.90;;;;;;5093431;28;20031;-51
2022/10/17 00:27:18;;;;;;;486.27;72.88;;;13.60;99.90;;;;;;5093519;28;20662;-50
2022/10/17 00:29:50;;;;;;;805.22;91.00;;;13.60;99.90;;;;;;5091796;28;20340;-52
2022/10/17 00:32:17;;;;;;;789.92;92.10;;;13.50;99.90;;;;;;5092904;28;20027;-50
2022/10/17 00:34:42;;;;;;;990.70;103.45;;;13.50;99.90;;;;;;5092213;28;20024;-50
2022/10/17 00:37:08;;;;;;;714.72;84.90;;;13.50;99.90;;;;;;5092454;28;20032;-51
2022/10/17 00:39:34;;;;;;;601.95;79.65;;;13.50;99.90;;;;;;5092893;28;20107;-52
2022/10/17 00:41:59;;;;;;;700.80;91.57;;;13.50;99.90;;;;;;5092237;28;20024;-50
2022/10/17 00:44:28;;;;;;;378.15;71.90;;;13.50;99.90;;;;;;5092347;28;20016;-51
2022/10/17 00:46:58;;;;;;;670.88;90.47;;;13.50;99.90;;;;;;5092780;28;20055;-51
2022/10/17 00:49:27;;;;;;;516.95;80.38;;;13.50;99.90;;;;;;5093087;28;20032;-51
2022/10/17 00:52:00;;;;;;;600.33;81.22;;;13.50;99.90;;;;;;5092962;28;20370;-50
2022/10/17 00:54:31;;;;;;;239.82;69.97;;;13.50;99.90;;;;;;5093176;28;20058;-50
2022/10/17 00:56:56;;;;;;;498.88;79.00;;;13.50;99.90;;;;;;5093118;28;20397;-50
2022/10/17 00:59:23;;;;;;;238.85;65.43;;;13.50;99.90;;;;;;5092885;28;20029;-50
2022/10/17 01:02:13;;;;;;;488.25;69.90;;;13.50;99.90;;;;;;5092853;28;20024;-50
2022/10/17 01:04:41;;;;;;;445.15;78.15;;;13.50;99.90;;;;;;5081552;28;20100;-51
2022/10/17 01:07:08;;;;;;;164.32;59.53;;;13.50;99.90;;;;;;5092379;28;20020;-50
2022/10/17 01:09:35;;;;;;;540.25;81.38;;;13.40;99.90;;;;;;5092763;28;20028;-50
2022/10/17 01:12:22;;;;;;;342.15;65.60;;;13.40;99.90;;;;;;5092544;28;20024;-51
2022/10/17 01:15:03;;;;;;;385.90;67.13;;;13.40;99.90;;;;;;5092493;28;20024;-51
2022/10/17 01:17:35;;;;;;;501.30;76.55;;;13.40;99.90;;;;;;5092753;28;20051;-50
2022/10/17 01:20:20;;;;;;;359.85;63.67;;;13.40;99.90;;;;;;5092468;28;20417;-49
2022/10/17 01:22:57;;;;;;;362.67;65.95;;;13.40;99.90;;;;;;5092519;28;20027;-50
2022/10/17 01:25:44;;;;;;;424.48;69.00;;;13.30;99.90;;;;;;5092244;28;20028;-51
2022/10/17 01:28:33;;;;;;;407.08;67.50;;;13.30;99.90;;;;;;5090857;28;20448;-52
2022/10/17 01:31:22;;;;;;;434.30;70.90;;;13.30;99.90;;;;;;5092456;28;20052;-53
2022/10/17 01:34:00;;;;;;;363.38;62.22;;;13.30;99.90;;;;;;5082939;28;20043;-51
2022/10/17 01:37:00;;;;;;;299.63;61.50;;;13.30;99.90;;;;;;5089700;28;20035;-50
2022/10/17 01:40:01;;;;;;;418.92;68.43;;;13.30;99.90;;;;;;5092203;28;20131;-51
2022/10/17 01:42:45;;;;;;;251.55;59.63;;;13.30;99.90;;;;;;5092045;28;20720;-50
2022/10/17 01:45:17;;;;;;;165.43;55.03;;;13.20;99.90;;;;;;5091936;28;20034;-51
2022/10/17 01:47:46;;;;;;;252.68;55.58;;;13.20;99.90;;;;;;5092136;28;20031;-51
2022/10/17 01:50:22;;;;;;;305.45;59.50;;;13.20;99.90;;;;;;5091746;28;20024;-50
2022/10/17 01:53:01;;;;;;;231.00;55.70;;;13.20;99.90;;;;;;5092053;28;20031;-50
2022/10/17 01:55:35;;;;;;;214.98;49.03;;;13.10;99.90;;;;;;5091488;28;20107;-50
2022/10/17 01:58:06;;;;;;;;;;;13.00;99.90;;;;;;5092396;28;20073;-50
2022/10/17 02:00:34;;;;;;;125.82;45.53;;;13.00;99.90;;;;;;5091907;28;19911;-53
2022/10/17 02:03:05;;;;;;;70.70;34.90;;;13.00;99.90;;;;;;5091735;28;20024;-51
2022/10/17 02:05:39;;;;;;;78.47;26.50;;;13.00;99.90;;;;;;5090226;28;20123;-51
2022/10/17 02:08:06;;;;;;;101.95;25.17;;;12.90;99.90;;;;;;5091624;28;20100;-50
2022/10/17 02:10:38;;;;;;;67.85;24.90;;;12.80;99.90;;;;;;5091759;28;20016;-51
2022/10/17 02:13:37;;;;;;;75.65;25.50;;;12.70;99.90;;;;;;5091619;28;20390;-52
2022/10/17 02:16:23;;;;;;;105.10;24.77;;;12.70;99.90;;;;;;5091631;28;20456;-51
2022/10/17 02:19:07;;;;;;;148.75;26.35;;;12.70;99.90;;;;;;5091868;28;20034;-50
2022/10/17 02:22:11;;;;;;;135.23;25.65;;;12.60;99.90;;;;;;5091557;28;20031;-51
2022/10/17 02:25:04;;;;;;;81.18;22.75;;;12.60;99.90;;;;;;5088309;28;20040;-50
2022/10/17 02:27:40;;;;;;;67.28;23.92;;;12.50;99.90;;;;;;5091553;28;20028;-51
2022/10/17 02:30:32;;;;;;;81.90;22.60;;;12.50;99.90;;;;;;5091413;28;20027;-51
2022/10/17 02:33:13;;;;;;;138.68;24.52;;;12.50;99.90;;;;;;5091504;28;20054;-52
2022/10/17 02:35:43;;;;;;;220.77;23.98;;;12.50;99.90;;;;;;5091508;28;20020;-52
2022/10/17 02:38:11;;;;;;;280.45;24.67;;;12.40;99.90;;;;;;5090263;28;20020;-50
2022/10/17 02:40:38;;;;;;;188.25;22.30;;;12.40;99.90;;;;;;5091470;28;20020;-51
2022/10/17 02:43:07;;;;;;;197.00;22.23;;;12.30;99.90;;;;;;5091360;28;20024;-51
2022/10/17 02:45:35;;;;;;;108.25;20.92;;;12.20;99.90;;;;;;5091426;28;20016;-50
2022/10/17 02:48:48;;;;;;;147.43;22.10;;;12.10;99.90;;;;;;5091292;28;20077;-50
2022/10/17 02:51:25;;;;;;;45.75;19.55;;;12.10;99.90;;;;;;5028486;28;20133;-50
2022/10/17 02:54:09;;;;;;;184.18;23.80;;;12.10;99.90;;;;;;5028693;28;20025;-51
2022/10/17 02:57:03;;;;;;;248.25;22.55;;;12.00;99.90;;;;;;5069800;28;20360;-50
2022/10/17 02:59:32;;;;;;;110.47;17.92;;;11.90;99.90;;;;;;5082891;28;20074;-54
2022/10/17 03:02:01;;;;;;;92.85;18.67;;;11.80;99.90;;;;;;5090260;28;20036;-50
2022/10/17 03:04:26;;;;;;;162.52;19.73;;;11.80;99.90;;;;;;5091041;28;20035;-50
2022/10/17 03:06:52;;;;;;;140.63;18.52;;;11.80;99.90;;;;;;5091811;28;20028;-51
2022/10/17 03:09:17;;;;;;;128.18;19.08;;;11.70;99.90;;;;;;5094852;28;20027;-49
2022/10/17 03:11:43;;;;;;;63.33;19.40;;;11.70;99.90;;;;;;5094877;28;20558;-50
2022/10/17 03:14:09;;;;;;;62.80;17.33;;;11.70;99.90;;;;;;5095134;28;20043;-50
2022/10/17 03:16:34;;;;;;;214.00;22.85;;;11.60;99.90;;;;;;5094983;28;20523;-51
2022/10/17 03:19:00;;;;;;;241.60;23.42;;;11.60;99.90;;;;;;5094817;28;20391;-51
2022/10/17 03:21:25;;;;;;;272.45;22.38;;;11.60;99.90;;;;;;5094743;28;20035;-52
2022/10/17 03:23:51;;;;;;;260.33;23.15;;;11.60;99.90;;;;;;5094912;28;20031;-50
2022/10/17 03:26:17;;;;;;;108.75;20.73;;;11.50;99.90;;;;;;5094941;28;20030;-50
2022/10/17 03:28:42;;;;;;;275.45;23.27;;;11.50;99.90;;;;;;5094731;28;20031;-50
2022/10/17 03:31:11;;;;;;;89.85;20.33;;;11.50;99.90;;;;;;5094450;28;20027;-50
2022/10/17 03:33:37;;;;;;;64.38;20.70;;;11.50;99.90;;;;;;5094746;28;20024;-50
2022/10/17 03:36:10;;;;;;;187.40;22.83;;;11.50;99.90;;;;;;5094335;28;20031;-51
2022/10/17 03:38:36;;;;;;;114.60;21.47;;;11.50;99.90;;;;;;5094608;28;20039;-50
2022/10/17 03:41:03;;;;;;;140.82;21.50;;;11.40;99.90;;;;;;5094298;28;20078;-50
2022/10/17 03:43:29;;;;;;;171.38;22.38;;;11.40;99.90;;;;;;5094416;28;20020;-50
2022/10/17 03:45:57;;;;;;;346.20;30.50;;;11.40;99.90;;;;;;5094441;28;20032;-51
2022/10/17 03:48:23;;;;;;;270.50;28.90;;;11.40;99.90;;;;;;5093984;28;20352;-52
2022/10/17 03:50:49;;;;;;;203.43;27.20;;;11.50;99.90;;;;;;5094347;28;20024;-50
2022/10/17 03:53:15;;;;;;;114.43;22.25;;;11.50;99.90;;;;;;5094069;28;20020;-54
2022/10/17 03:55:40;;;;;;;146.50;25.40;;;11.50;99.90;;;;;;5094271;28;20012;-50
2022/10/17 03:58:06;;;;;;;365.48;28.40;;;11.60;99.90;;;;;;5092778;28;20032;-52
2022/10/17 04:00:31;;;;;;;98.85;22.23;;;11.60;99.90;;;;;;5092780;28;20024;-51
2022/10/17 04:02:57;;;;;;;131.85;23.48;;;11.60;99.90;;;;;;5094390;28;20050;-50
2022/10/17 04:05:23;;;;;;;331.33;28.63;;;11.60;99.90;;;;;;5092504;28;20031;-51
2022/10/17 04:07:49;;;;;;;153.45;25.40;;;11.60;99.90;;;;;;5093780;28;20456;-51
2022/10/17 04:10:15;;;;;;;77.93;23.15;;;11.60;99.90;;;;;;5093597;28;20031;-52
2022/10/17 04:12:40;;;;;;;179.55;23.88;;;11.60;99.90;;;;;;5093987;28;20047;-51
2022/10/17 04:15:11;;;;;;;148.60;25.98;;;11.60;99.90;;;;;;5093516;28;20020;-51
2022/10/17 04:17:37;;;;;;;162.40;22.42;;;11.60;99.90;;;;;;5093107;28;20051;-50
2022/10/17 04:20:03;;;;;;;279.60;24.63;;;11.60;99.90;;;;;;5093501;28;20526;-52
2022/10/17 04:22:28;;;;;;;167.63;24.05;;;11.60;99.90;;;;;;5092009;28;20138;-52
2022/10/17 04:24:54;;;;;;;204.45;24.08;;;11.60;99.90;;;;;;5093738;28;20056;-50
2022/10/17 04:27:20;;;;;;;144.52;23.38;;;11.60;99.90;;;;;;5093478;28;20082;-51
2022/10/17 04:29:45;;;;;;;165.05;26.05;;;11.60;99.90;;;;;;5093438;28;20418;-50
2022/10/17 04:32:11;;;;;;;213.90;26.52;;;11.60;99.90;;;;;;5093411;28;20478;-52
2022/10/17 04:34:37;;;;;;;195.27;25.98;;;11.60;99.90;;;;;;5093409;28;20024;-51
2022/10/17 04:37:02;;;;;;;139.43;22.30;;;11.60;99.90;;;;;;5091830;28;20027;-51
2022/10/17 04:39:28;;;;;;;225.45;23.58;;;11.60;99.90;;;;;;5092155;28;20101;-52
2022/10/17 04:41:55;;;;;;;55.25;20.85;;;11.60;99.90;;;;;;5093407;28;20030;-50
2022/10/17 04:44:21;;;;;;;220.88;26.63;;;11.50;99.90;;;;;;5093009;28;20020;-50
2022/10/17 04:46:47;;;;;;;313.23;27.10;;;11.60;99.90;;;;;;5093208;28;20032;-50
2022/10/17 04:49:12;;;;;;;200.35;18.95;;;11.50;99.90;;;;;;5092939;28;20055;-50
2022/10/17 04:51:38;;;;;;;130.13;18.55;;;11.40;99.90;;;;;;5093004;28;20024;-52
2022/10/17 04:54:04;;;;;;;152.50;18.33;;;11.40;99.90;;;;;;5092939;28;20027;-51
2022/10/17 04:56:30;;;;;;;137.13;16.65;;;11.40;99.90;;;;;;5092892;28;20027;-50
2022/10/17 04:58:58;;;;;;;48.03;13.32;;;11.30;99.90;;;;;;5093035;28;20024;-52
2022/10/17 05:01:24;;;;;;;50.00;14.07;;;11.30;99.90;;;;;;5092568;28;20684;-53
2022/10/17 05:03:50;;;;;;;72.97;13.52;;;11.30;99.90;;;;;;5092250;28;20070;-52
2022/10/17 05:06:19;;;;;;;83.30;14.45;;;11.20;99.90;;;;;;5091636;28;20031;-51
2022/10/17 05:08:45;;;;;;;93.90;13.88;;;11.20;99.90;;;;;;5089139;28;20357;-50
2022/10/17 05:11:20;;;;;;;90.90;13.73;;;11.10;99.90;;;;;;5092225;28;20020;-51
2022/10/17 05:13:56;;;;;;;90.38;12.40;;;11.10;99.90;;;;;;5092322;28;20062;-50
2022/10/17 05:16:46;;;;;;;68.65;13.48;;;11.00;99.90;;;;;;5091872;28;20031;-50
2022/10/17 05:19:12;;;;;;;59.28;12.57;;;11.00;99.90;;;;;;5091678;28;20700;-50
2022/10/17 05:21:38;;;;;;;65.32;12.90;;;11.00;99.90;;;;;;5092335;28;20107;-53
2022/10/17 05:24:08;;;;;;;58.45;12.90;;;11.00;99.90;;;;;;5092123;28;20020;-51
2022/10/17 05:26:34;;;;;;;91.68;14.48;;;11.00;99.90;;;;;;5092093;28;20375;-54
2022/10/17 05:29:04;;;;;;;108.13;16.25;;;10.90;99.90;;;;;;5090614;28;20032;-53
2022/10/17 05:31:30;;;;;;;86.80;15.55;;;10.90;99.90;;;;;;5091098;28;20020;-50
2022/10/17 05:34:00;;;;;;;131.02;15.95;;;10.90;99.90;;;;;;5091135;28;20105;-50
2022/10/17 05:36:26;;;;;;;60.88;15.05;;;10.90;99.90;;;;;;5089388;28;20401;-51
2022/10/17 05:38:51;;;;;;;114.32;15.75;;;10.90;99.90;;;;;;5091179;28;20039;-51
2022/10/17 05:41:18;;;;;;;70.53;15.88;;;10.90;99.90;;;;;;5090526;28;20032;-49
2022/10/17 05:43:44;;;;;;;46.13;16.15;;;10.90;99.90;;;;;;5090795;28;20165;-52
2022/10/17 05:46:09;;;;;;;171.90;20.80;;;11.00;99.90;;;;;;5091681;28;20487;-52
2022/10/17 05:48:35;;;;;;;216.65;21.98;;;11.10;99.90;;;;;;5091804;28;20109;-51
2022/10/17 05:51:03;;;;;;;221.50;25.73;;;11.10;99.90;;;;;;5091074;28;20374;-51
2022/10/17 05:53:31;;;;;;;102.40;22.42;;;11.10;99.90;;;;;;5090792;28;20025;-51
2022/10/17 05:55:59;;;;;;;278.05;28.30;;;11.20;99.90;;;;;;5090746;28;20024;-51
2022/10/17 05:58:25;;;;;;;272.13;26.40;;;11.30;99.90;;;;;;5090219;28;20024;-52
2022/10/17 06:00:50;;;;;;;254.60;26.48;;;11.30;99.90;;;;;;5090901;28;20031;-50
2022/10/17 06:03:16;;;;;;;352.02;30.80;;;11.30;99.90;;;;;;5090089;28;20028;-50
2022/10/17 06:05:42;;;;;;;280.90;30.17;;;11.40;99.90;;;;;;5090713;28;20025;-50
2022/10/17 06:08:07;;;;;;;333.92;31.33;;;11.30;99.90;;;;;;5090202;28;20089;-53
2022/10/17 06:10:33;;;;;;;462.27;36.47;;;11.40;99.90;;;;;;5090203;28;20031;-50
2022/10/17 06:12:58;;;;;;;283.85;30.75;;;11.40;99.90;;;;;;5091432;28;20511;-52
2022/10/17 06:15:24;;;;;;;478.52;38.08;;;11.50;99.90;;;;;;5090609;28;20089;-50
2022/10/17 06:17:50;;;;;;;313.63;33.40;;;11.50;99.90;;;;;;5090537;28;20016;-50
2022/10/17 06:20:15;;;;;;;358.05;30.67;;;11.50;99.90;;;;;;5091026;28;20028;-51
2022/10/17 06:22:42;;;;;;;228.75;29.55;;;11.60;99.90;;;;;;5091705;28;20023;-51
2022/10/17 06:25:08;;;;;;;221.98;29.13;;;11.60;99.90;;;;;;5091059;28;20035;-68
2022/10/17 06:27:33;;;;;;;292.15;25.33;;;11.70;99.90;;;;;;5091384;28;20059;-51
2022/10/17 06:29:59;;;;;;;242.48;23.48;;;11.70;99.90;;;;;;5091372;28;20475;-52
2022/10/17 06:32:24;;;;;;;143.98;20.02;;;11.80;99.90;;;;;;5091438;28;20020;-51
2022/10/17 06:34:50;;;;;;;155.52;20.73;;;11.80;99.90;;;;;;5091643;28;20025;-49
2022/10/17 06:37:16;;;;;;;420.98;26.85;;;11.80;99.90;;;;;;5091338;28;20451;-50
2022/10/17 06:39:43;;;;;;;388.90;29.17;;;12.00;99.90;;;;;;5091469;28;20535;-50
2022/10/17 06:42:09;;;;;;;338.08;26.00;;;12.00;99.90;;;;;;5092550;28;20371;-54
2022/10/17 06:44:34;;;;;;;360.73;28.58;;;12.10;99.90;;;;;;5094949;28;20022;-51
2022/10/17 06:47:00;;;;;;;420.50;27.98;;;12.10;99.90;;;;;;5091419;28;20035;-50
2022/10/17 06:49:27;;;;;;;388.70;27.20;;;12.10;99.90;;;;;;5090875;28;20028;-50
2022/10/17 06:51:53;;;;;;;403.08;31.10;;;12.20;99.90;;;;;;5092240;28;20031;-51
2022/10/17 06:54:18;;;;;;;174.20;22.13;;;12.20;99.90;;;;;;5094461;28;20043;-51
2022/10/17 06:56:44;;;;;;;386.13;30.30;;;12.30;99.90;;;;;;5094664;28;20016;-51
2022/10/17 06:59:10;;;;;;;161.27;21.83;;;12.40;99.90;;;;;;5094736;28;20035;-50
2022/10/17 07:04:58;;;;;;;59.97;18.70;;;12.60;99.90;;;;;;5074697;28;20078;-51
2022/10/17 07:07:23;;;;;;;69.88;16.63;;;12.70;99.90;;;;;;5074420;28;20048;-51
2022/10/17 07:09:50;;;;;;;115.43;18.63;;;12.70;99.90;;;;;;5074604;28;20050;-50
2022/10/17 07:12:16;;;;;;;168.95;19.73;;;12.60;99.90;;;;;;5074623;28;20029;-52
2022/10/17 07:14:41;;;;;;;120.72;19.30;;;12.60;99.90;;;;;;5074454;28;20109;-50
2022/10/17 07:17:07;;;;;;;122.80;19.67;;;12.60;99.90;;;;;;5074434;28;20027;-53
2022/10/17 07:19:33;;;;;;;67.45;17.95;;;12.80;99.90;;;;;;5073075;28;20452;-52
2022/10/17 07:21:58;;;;;;;270.33;23.52;;;12.80;99.90;;;;;;5074739;28;20031;-52
2022/10/17 07:24:24;;;;;;;151.38;19.08;;;13.00;99.90;;;;;;5074425;28;20082;-49
2022/10/17 07:26:50;;;;;;;119.50;20.38;;;13.00;99.90;;;;;;5074477;28;20025;-52
2022/10/17 07:29:15;;;;;;;74.13;18.13;;;13.10;99.90;;;;;;5074021;28;20024;-50
2022/10/17 07:31:41;;;;;;;30.25;16.60;;;13.20;99.90;;;;;;5074265;28;20034;-50
2022/10/17 07:34:08;;;;;;;77.25;18.55;;;13.20;99.90;;;;;;5074335;28;20020;-50
2022/10/17 07:36:34;;;;;;;90.15;18.05;;;13.30;99.90;;;;;;5074168;28;20352;-51
2022/10/17 07:38:59;;;;;;;45.28;16.88;;;13.30;99.90;;;;;;5074220;28;20032;-51
2022/10/17 07:41:25;;;;;;;83.28;17.45;;;13.20;99.90;;;;;;5073897;28;20036;-52
2022/10/17 07:43:51;;;;;;;19.52;15.63;;;13.40;99.90;;;;;;5074036;28;20025;-51
2022/10/17 07:46:16;;;;;;;37.28;17.80;;;13.60;99.90;;;;;;5073949;28;20025;-52
2022/10/17 07:48:42;;;;;;;63.97;16.80;;;13.60;99.90;;;;;;5074019;28;20036;-49
2022/10/17 07:51:08;;;;;;;40.22;15.10;;;13.70;99.90;;;;;;5073994;28;20025;-51
2022/10/17 07:53:36;;;;;;;50.85;16.38;;;13.70;99.90;;;;;;5073143;28;20024;-50
2022/10/17 07:56:07;;;;;;;72.82;16.00;;;13.60;99.90;;;;;;5073893;28;20048;-51
2022/10/17 07:58:33;;;;;;;53.00;15.63;;;13.60;99.90;;;;;;5073967;28;20494;-51
2022/10/17 08:01:04;;;;;;;19.85;14.02;;;13.50;99.90;;;;;;5072508;28;20396;-53
2022/10/17 08:03:30;;;;;;;32.67;19.02;;;13.60;99.90;;;;;;5073642;28;20032;-51
2022/10/17 08:05:58;;;;;;;31.75;14.50;;;13.60;99.90;;;;;;5073725;28;20108;-51
2022/10/17 08:08:23;;;;;;;30.98;15.07;;;13.60;99.90;;;;;;5073196;28;20044;-51
2022/10/17 08:10:49;;;;;;;48.75;18.95;;;13.80;99.90;;;;;;5073812;28;20090;-50
2022/10/17 08:13:15;;;;;;;25.42;13.93;;;13.80;99.90;;;;;;5073353;28;20056;-50
2022/10/17 08:19:03;;;;;;;22.15;14.93;;;14.00;99.90;;;;;;5073501;28;20115;-50
2022/10/17 08:21:29;;;;;;;15.90;14.25;;;14.10;99.90;;;;;;5073318;28;20021;-51
2022/10/17 08:23:55;;;;;;;16.30;12.80;;;14.10;99.90;;;;;;5073598;28;20070;-50
2022/10/17 08:26:21;;;;;;;17.10;13.20;;;14.40;99.90;;;;;;5073263;28;20027;-50
2022/10/17 08:28:47;;;;;;;22.27;13.50;;;14.40;99.90;;;;;;5073350;28;20021;-50
2022/10/17 08:31:18;;;;;;;13.85;12.43;;;14.30;99.90;;;;;;5073208;28;20021;-50
2022/10/17 08:33:44;;;;;;;26.42;14.30;;;14.50;99.90;;;;;;5073263;28;20399;-52
2022/10/17 08:36:13;;;;;;;18.50;14.48;;;14.40;99.90;;;;;;5072146;28;20029;-51
2022/10/17 08:38:41;;;;;;;18.10;15.18;;;14.30;99.90;;;;;;5071299;28;20035;-50
2022/10/17 08:41:33;;;;;;;18.75;14.13;;;14.30;99.90;;;;;;5070777;28;20520;-51
2022/10/17 08:44:04;;;;;;;20.55;12.90;;;14.40;99.90;;;;;;5071951;28;20032;-51
2022/10/17 08:46:40;;;;;;;28.35;13.63;;;14.40;99.90;;;;;;5072078;28;20028;-50
2022/10/17 08:49:18;;;;;;;25.85;13.57;;;14.70;99.90;;;;;;5071448;28;20114;-51
2022/10/17 08:51:53;;;;;;;19.88;14.80;;;14.70;99.90;;;;;;5071781;28;20048;-50
2022/10/17 08:54:25;;;;;;;16.77;14.88;;;14.60;99.90;;;;;;5070181;28;20024;-50
2022/10/17 08:56:54;;;;;;;16.23;13.80;;;14.50;99.90;;;;;;5071796;28;20387;-50
2022/10/17 08:59:24;;;;;;;22.15;15.88;;;14.50;99.90;;;;;;5071523;28;20032;-54
2022/10/17 09:02:20;;;;;;;21.15;15.57;;;14.50;99.90;;;;;;5071612;28;20036;-52
2022/10/17 09:05:02;;;;;;;23.67;15.88;;;14.60;99.90;;;;;;5071333;28;20021;-50
2022/10/17 09:07:31;;;;;;;17.70;15.43;;;14.60;99.90;;;;;;5071122;28;20381;-50
2022/10/17 09:09:59;;;;;;;29.35;15.45;;;14.60;99.90;;;;;;5071318;28;20535;-52
2022/10/17 09:12:38;;;;;;;19.13;16.40;;;14.80;99.90;;;;;;5071245;28;20021;-51
2022/10/17 09:15:31;;;;;;;27.30;16.55;;;14.90;99.90;;;;;;5069705;28;20017;-51
2022/10/17 09:18:08;;;;;;;23.42;16.00;;;14.90;99.90;;;;;;5070057;28;20024;-52
2022/10/17 09:21:00;;;;;;;18.38;14.90;;;15.00;99.90;;;;;;5070998;28;20021;-51
2022/10/17 09:23:32;;;;;;;21.50;16.08;;;14.90;99.90;;;;;;5070314;28;20040;-50
2022/10/17 09:26:00;;;;;;;27.63;15.50;;;15.00;99.90;;;;;;5071154;28;20052;-54
2022/10/17 09:28:35;;;;;;;16.75;14.65;;;14.80;99.90;;;;;;5070789;28;20247;-54
2022/10/17 09:31:15;;;;;;;19.38;17.23;;;14.90;99.90;;;;;;5070826;28;20372;-51
2022/10/17 09:33:44;;;;;;;17.73;15.38;;;14.90;99.90;;;;;;5070974;28;20528;-50
2022/10/17 09:36:18;;;;;;;17.38;14.00;;;14.90;99.90;;;;;;5070572;28;20024;-51
2022/10/17 09:38:48;;;;;;;31.73;15.65;;;15.10;99.90;;;;;;5070571;28;20458;-50
2022/10/17 09:41:38;;;;;;;21.55;14.48;;;15.00;99.90;;;;;;5070849;28;20115;-51
2022/10/17 09:44:25;;;;;;;20.75;14.82;;;15.20;99.90;;;;;;5070968;28;20046;-51
2022/10/17 09:47:11;;;;;;;25.10;16.23;;;15.20;99.90;;;;;;5070498;28;20024;-52
2022/10/17 09:49:41;;;;;;;31.60;14.32;;;15.20;99.90;;;;;;5070385;28;20542;-51
2022/10/17 09:52:17;;;;;;;26.42;14.30;;;15.40;99.90;;;;;;5070189;28;20138;-50
2022/10/17 09:54:49;;;;;;;15.70;13.73;;;15.30;99.90;;;;;;5070883;28;20037;-52
2022/10/17 09:57:17;;;;;;;19.60;14.98;;;15.40;99.90;;;;;;5070253;28;20152;-50
2022/10/17 09:59:54;;;;;;;17.63;13.32;;;15.40;99.90;;;;;;5070639;28;20035;-51
2022/10/17 10:02:22;;;;;;;20.75;14.25;;;15.30;99.90;;;;;;5070230;28;20135;-51
2022/10/17 10:05:00;;;;;;;16.50;14.02;;;15.40;99.90;;;;;;5070627;28;20020;-51
2022/10/17 10:07:29;;;;;;;14.30;12.82;;;15.50;99.90;;;;;;5070169;28;20044;-51
2022/10/17 10:09:56;;;;;;;21.65;16.08;;;15.50;99.90;;;;;;5070392;28;20111;-51
2022/10/17 10:12:28;;;;;;;18.83;14.15;;;15.50;99.90;;;;;;5070017;28;20439;-51
2022/10/17 10:14:54;;;;;;;23.67;16.67;;;15.50;99.90;;;;;;5070660;28;20024;-52
2022/10/17 10:17:43;;;;;;;22.58;14.93;;;15.50;99.90;;;;;;5069775;28;20024;-51
2022/10/17 10:20:32;;;;;;;18.27;14.32;;;15.70;99.90;;;;;;5070199;28;20441;-51
2022/10/17 10:23:16;;;;;;;37.85;15.13;;;15.70;99.90;;;;;;5070271;28;20020;-52
2022/10/17 10:25:53;;;;;;;16.48;13.60;;;15.70;99.90;;;;;;5068837;28;20025;-49
2022/10/17 10:28:20;;;;;;;26.02;15.30;;;15.90;99.90;;;;;;5069757;28;20024;-51
2022/10/17 10:30:51;;;;;;;19.60;15.18;;;16.20;99.90;;;;;;5070415;28;20075;-51
2022/10/17 10:33:20;;;;;;;16.73;14.23;;;16.20;99.90;;;;;;5069916;28;20383;-51
2022/10/17 10:35:58;;;;;;;17.83;14.15;;;16.20;99.90;;;;;;5070418;28;20024;-50
2022/10/17 10:38:24;;;;;;;14.13;12.68;;;16.40;99.90;;;;;;5069992;28;20044;-50
2022/10/17 10:40:56;;;;;;;15.13;13.52;;;16.30;99.90;;;;;;5070242;28;20052;-51
2022/10/17 10:43:28;;;;;;;15.85;11.95;;;16.20;99.90;;;;;;5069928;28;20216;-51
2022/10/17 10:45:54;;;;;;;16.17;12.80;;;16.20;99.90;;;;;;5070100;28;20056;-51
2022/10/17 10:48:32;;;;;;;17.25;14.38;;;16.40;99.90;;;;;;5069434;28;20048;-51
2022/10/17 10:50:59;;;;;;;14.68;13.07;;;16.20;99.90;;;;;;5070276;28;20103;-51
2022/10/17 10:54:04;;;;;;;15.15;12.65;;;16.20;99.90;;;;;;5069792;28;20475;-52
2022/10/17 10:56:39;;;;;;;19.00;13.20;;;16.10;99.90;;;;;;5069778;28;20120;-51
2022/10/17 10:59:08;;;;;;;15.00;13.50;;;16.30;99.90;;;;;;5069797;28;20390;-51
2022/10/17 11:01:44;;;;;;;18.33;14.02;;;16.40;99.90;;;;;;5069810;28;20051;-52
2022/10/17 11:04:39;;;;;;;16.23;13.80;;;16.80;99.90;;;;;;5069744;28;20460;-51
2022/10/17 11:07:29;;;;;;;14.00;12.23;;;16.70;99.90;;;;;;5069472;28;20130;-50
2022/10/17 11:10:36;;;;;;;20.15;13.20;;;16.70;99.90;;;;;;5068120;28;20028;-50
2022/10/17 11:13:22;;;;;;;15.35;12.02;;;16.90;99.90;;;;;;4952189;28;20517;-53
2022/10/17 11:15:59;;;;;;;13.10;11.48;;;17.20;99.90;;;;;;4969014;28;20126;-51
2022/10/17 11:18:39;;;;;;;15.32;11.18;;;17.40;99.90;;;;;;5038039;28;20056;-53
2022/10/17 11:21:47;;;;;;;16.52;10.80;;;18.30;99.90;;;;;;5069593;28;20025;-51
2022/10/17 11:24:30;;;;;;;12.35;10.00;;;18.90;99.90;;;;;;5041709;28;20036;-53
2022/10/17 11:27:06;;;;;;;12.75;10.35;;;20.00;99.90;;;;;;5071147;28;20043;-51
2022/10/17 11:29:35;;;;;;;12.55;9.38;;;20.80;99.90;;;;;;5063139;28;20483;-51
2022/10/17 11:32:12;;;;;;;13.73;9.80;;;22.50;99.90;;;;;;5063648;28;20024;-51
2022/10/17 11:35:02;;;;;;;10.20;8.65;;;22.80;98.10;;;;;;5063725;28;20360;-52
2022/10/17 11:37:34;;;;;;;13.52;10.15;;;23.20;95.90;;;;;;5063640;28;20107;-51
2022/10/17 11:40:05;;;;;;;11.23;8.38;;;23.90;93.60;;;;;;5081662;28;20471;-51
2022/10/17 11:42:40;;;;;;;13.93;8.73;;;24.40;92.90;;;;;;5068594;28;20031;-52
2022/10/17 11:45:17;;;;;;;8.38;7.50;;;25.10;92.10;;;;;;5076781;28;20074;-54
2022/10/17 11:47:45;;;;;;;11.35;9.00;;;26.10;88.40;;;;;;5097953;28;20540;-51
2022/10/17 11:50:30;;;;;;;9.07;8.20;;;25.30;85.40;;;;;;5082545;28;20047;-52
2022/10/17 11:53:00;;;;;;;9.13;8.05;;;25.00;88.90;;;;;;5083169;28;20027;-50
2022/10/17 11:55:28;;;;;;;15.77;9.90;;;24.90;89.60;;;;;;5083582;28;20074;-52
2022/10/17 11:57:59;;;;;;;10.13;9.13;;;25.30;87.00;;;;;;5066862;28;20112;-56
2022/10/17 12:00:28;;;;;;;19.48;9.85;;;25.30;85.10;;;;;;5082075;28;20024;-51
2022/10/17 12:03:31;;;;;;;10.45;9.23;;;26.40;84.60;;;;;;5079882;28;20356;-51
2022/10/17 12:06:14;;;;;;;16.05;9.30;;;27.10;82.20;;;;;;5082949;28;20047;-54
2022/10/17 12:09:09;;;;;;;12.70;10.40;;;27.70;79.30;;;;;;5074833;28;20075;-53
2022/10/17 12:11:54;;;;;;;13.43;9.43;;;26.70;78.60;;;;;;5068052;28;20028;-52
2022/10/17 12:14:41;;;;;;;12.75;9.93;;;26.20;79.20;;;;;;5062625;28;20043;-55
2022/10/17 12:17:42;;;;;;;19.63;10.98;;;26.30;79.60;;;;;;5078461;28;20095;-51
2022/10/17 12:20:22;;;;;;;21.00;10.10;;;26.30;77.70;;;;;;5062916;28;20074;-52
2022/10/17 12:23:09;;;;;;;12.63;11.32;;;26.70;78.30;;;;;;5062918;28;20063;-51
2022/10/17 12:25:47;;;;;;;20.42;11.57;;;27.30;75.70;;;;;;5061885;28;20036;-55
2022/10/17 12:28:27;;;;;;;16.98;11.25;;;26.70;76.20;;;;;;5081802;28;20059;-55
2022/10/17 12:31:14;;;;;;;13.30;10.27;;;26.70;76.20;;;;;;5082305;28;20040;-55
2022/10/17 12:33:49;;;;;;;16.13;9.85;;;26.60;73.90;;;;;;5080494;28;20035;-52
2022/10/17 12:36:29;;;;;;;19.13;10.43;;;26.70;74.60;;;;;;5062061;28;20024;-53
2022/10/17 12:39:00;;;;;;;16.20;10.05;;;26.80;74.60;;;;;;5061998;28;20108;-53
2022/10/17 12:41:38;;;;;;;20.33;11.07;;;27.40;74.40;;;;;;5062704;28;20038;-55
2022/10/17 12:44:13;;;;;;;12.25;11.05;;;27.40;72.70;;;;;;5062651;28;20514;-51
2022/10/17 12:46:50;;;;;;;16.75;11.18;;;27.00;73.00;;;;;;5063661;28;22647;-55
2022/10/17 12:49:49;;;;;;;20.27;12.60;;;26.80;74.70;;;;;;5081876;28;20027;-51
2022/10/17 12:52:18;;;;;;;18.08;11.55;;;26.60;74.00;;;;;;5081783;28;20479;-52
2022/10/17 12:55:02;;;;;;;11.95;10.32;;;27.00;74.70;;;;;;5072025;28;20054;-54